sensor_id;sensor_type;location;lat;lon;timestamp;P1;durP1;ratioP1;P2;durP2;ratioP2
9524;SDS011;15940;48.734;9.112;2022-07-06T00:00:01;1.87;;;1.70;;
9524;SDS011;15940;48.734;9.112;2022-07-06T00:02:28;2.20;;;2.00;;
9524;SDS011;15940;48.734;9.112;2022-07-06T00:04:55;2.40;;;1.90;;
9524;SDS011;15940;48.734;9.112;2022-07-06T00:07:23;6.37;;;1.90;;
9524;SDS011;15940;48.734;9.112;2022-07-06T00:09:50;2.23;;;1.97;;
9524;SDS011;15940;48.734;9.112;2022-07-06T00:12:17;5.53;;;2.00;;
9524;SDS011;15940;48.734;9.112;2022-07-06T00:14:45;3.30;;;2.00;;
9524;SDS011;15940;48.734;9.112;2022-07-06T00:17:12;2.87;;;1.90;;
9524;SDS011;15940;48.734;9.112;2022-07-06T00:19:39;3.73;;;2.10;;
9524;SDS011;15940;48.734;9.112;2022-07-06T00:22:06;3.43;;;1.90;;
9524;SDS011;15940;48.734;9.112;2022-07-06T00:24:33;2.30;;;2.07;;
9524;SDS011;15940;48.734;9.112;2022-07-06T00:27:00;1.97;;;1.87;;
9524;SDS011;15940;48.734;9.112;2022-07-06T00:29:27;2.77;;;2.03;;
9524;SDS011;15940;48.734;9.112;2022-07-06T00:31:56;4.93;;;1.90;;
9524;SDS011;15940;48.734;9.112;2022-07-06T00:34:24;2.73;;;2.00;;
9524;SDS011;15940;48.734;9.112;2022-07-06T00:36:51;2.30;;;2.20;;
9524;SDS011;15940;48.734;9.112;2022-07-06T00:39:18;2.40;;;1.80;;
9524;SDS011;15940;48.734;9.112;2022-07-06T00:41:46;2.47;;;2.17;;
9524;SDS011;15940;48.734;9.112;2022-07-06T00:44:13;2.90;;;2.10;;
9524;SDS011;15940;48.734;9.112;2022-07-06T00:46:40;1.90;;;1.80;;
9524;SDS011;15940;48.734;9.112;2022-07-06T00:49:08;2.13;;;1.93;;
9524;SDS011;15940;48.734;9.112;2022-07-06T00:51:56;2.10;;;1.90;;
9524;SDS011;15940;48.734;9.112;2022-07-06T00:54:24;2.30;;;2.10;;
9524;SDS011;15940;48.734;9.112;2022-07-06T00:56:52;3.03;;;2.20;;
9524;SDS011;15940;48.734;9.112;2022-07-06T00:59:20;4.10;;;2.10;;
9524;SDS011;15940;48.734;9.112;2022-07-06T01:01:48;2.87;;;2.27;;
9524;SDS011;15940;48.734;9.112;2022-07-06T01:04:16;2.30;;;2.10;;
9524;SDS011;15940;48.734;9.112;2022-07-06T01:06:43;2.93;;;1.97;;
9524;SDS011;15940;48.734;9.112;2022-07-06T01:09:12;4.07;;;2.20;;
9524;SDS011;15940;48.734;9.112;2022-07-06T01:11:39;2.20;;;2.00;;
9524;SDS011;15940;48.734;9.112;2022-07-06T01:14:06;3.30;;;2.10;;
9524;SDS011;15940;48.734;9.112;2022-07-06T01:16:34;3.67;;;2.10;;
9524;SDS011;15940;48.734;9.112;2022-07-06T01:19:01;2.23;;;2.10;;
9524;SDS011;15940;48.734;9.112;2022-07-06T01:21:29;3.10;;;2.30;;
9524;SDS011;15940;48.734;9.112;2022-07-06T01:23:57;2.27;;;1.87;;
9524;SDS011;15940;48.734;9.112;2022-07-06T01:26:24;5.47;;;2.20;;
9524;SDS011;15940;48.734;9.112;2022-07-06T01:28:51;2.73;;;2.00;;
9524;SDS011;15940;48.734;9.112;2022-07-06T01:31:19;3.17;;;2.00;;
9524;SDS011;15940;48.734;9.112;2022-07-06T01:33:48;3.43;;;2.43;;
9524;SDS011;15940;48.734;9.112;2022-07-06T01:36:16;6.90;;;2.60;;
9524;SDS011;15940;48.734;9.112;2022-07-06T01:38:45;4.90;;;2.00;;
9524;SDS011;15940;48.734;9.112;2022-07-06T01:41:13;2.20;;;2.00;;
9524;SDS011;15940;48.734;9.112;2022-07-06T01:43:40;4.13;;;2.00;;
9524;SDS011;15940;48.734;9.112;2022-07-06T01:46:07;3.83;;;2.17;;
9524;SDS011;15940;48.734;9.112;2022-07-06T01:48:34;4.00;;;2.00;;
9524;SDS011;15940;48.734;9.112;2022-07-06T01:51:01;2.50;;;2.00;;
9524;SDS011;15940;48.734;9.112;2022-07-06T01:53:28;2.07;;;1.97;;
9524;SDS011;15940;48.734;9.112;2022-07-06T01:55:57;2.40;;;2.10;;
9524;SDS011;15940;48.734;9.112;2022-07-06T01:58:24;2.17;;;2.03;;
9524;SDS011;15940;48.734;9.112;2022-07-06T02:00:51;3.97;;;2.00;;
9524;SDS011;15940;48.734;9.112;2022-07-06T02:03:18;4.20;;;2.00;;
9524;SDS011;15940;48.734;9.112;2022-07-06T02:05:45;2.60;;;1.90;;
9524;SDS011;15940;48.734;9.112;2022-07-06T02:08:12;5.13;;;2.00;;
9524;SDS011;15940;48.734;9.112;2022-07-06T02:10:39;2.97;;;2.10;;
9524;SDS011;15940;48.734;9.112;2022-07-06T02:13:07;3.43;;;2.30;;
9524;SDS011;15940;48.734;9.112;2022-07-06T02:15:34;2.10;;;2.00;;
9524;SDS011;15940;48.734;9.112;2022-07-06T02:18:01;4.70;;;1.90;;
9524;SDS011;15940;48.734;9.112;2022-07-06T02:20:28;5.53;;;1.97;;
9524;SDS011;15940;48.734;9.112;2022-07-06T02:22:55;5.50;;;2.33;;
9524;SDS011;15940;48.734;9.112;2022-07-06T02:25:22;2.37;;;2.17;;
9524;SDS011;15940;48.734;9.112;2022-07-06T02:27:49;2.47;;;1.83;;
9524;SDS011;15940;48.734;9.112;2022-07-06T02:30:18;3.33;;;2.13;;
9524;SDS011;15940;48.734;9.112;2022-07-06T02:32:45;4.23;;;1.90;;
9524;SDS011;15940;48.734;9.112;2022-07-06T02:35:12;2.73;;;2.10;;
9524;SDS011;15940;48.734;9.112;2022-07-06T02:37:39;2.17;;;2.07;;
9524;SDS011;15940;48.734;9.112;2022-07-06T02:40:06;2.17;;;2.00;;
9524;SDS011;15940;48.734;9.112;2022-07-06T02:42:34;3.23;;;1.93;;
9524;SDS011;15940;48.734;9.112;2022-07-06T02:45:02;13.27;;;2.40;;
9524;SDS011;15940;48.734;9.112;2022-07-06T02:47:31;3.13;;;2.07;;
9524;SDS011;15940;48.734;9.112;2022-07-06T02:49:58;3.83;;;2.20;;
9524;SDS011;15940;48.734;9.112;2022-07-06T02:52:25;2.20;;;2.10;;
9524;SDS011;15940;48.734;9.112;2022-07-06T02:54:52;2.17;;;1.93;;
9524;SDS011;15940;48.734;9.112;2022-07-06T02:57:19;5.57;;;2.20;;
9524;SDS011;15940;48.734;9.112;2022-07-06T02:59:46;2.00;;;1.90;;
9524;SDS011;15940;48.734;9.112;2022-07-06T03:02:14;3.17;;;2.20;;
9524;SDS011;15940;48.734;9.112;2022-07-06T03:04:43;3.40;;;2.13;;
9524;SDS011;15940;48.734;9.112;2022-07-06T03:07:10;2.50;;;2.30;;
9524;SDS011;15940;48.734;9.112;2022-07-06T03:09:37;3.07;;;2.30;;
9524;SDS011;15940;48.734;9.112;2022-07-06T03:12:04;5.37;;;2.40;;
9524;SDS011;15940;48.734;9.112;2022-07-06T03:14:31;5.70;;;2.23;;
9524;SDS011;15940;48.734;9.112;2022-07-06T03:16:58;3.77;;;2.60;;
9524;SDS011;15940;48.734;9.112;2022-07-06T03:19:25;2.60;;;2.20;;
9524;SDS011;15940;48.734;9.112;2022-07-06T03:21:54;2.23;;;2.10;;
9524;SDS011;15940;48.734;9.112;2022-07-06T03:24:21;2.80;;;2.00;;
9524;SDS011;15940;48.734;9.112;2022-07-06T03:26:48;2.83;;;2.13;;
9524;SDS011;15940;48.734;9.112;2022-07-06T03:29:20;3.33;;;2.43;;
9524;SDS011;15940;48.734;9.112;2022-07-06T03:31:47;5.47;;;2.57;;
9524;SDS011;15940;48.734;9.112;2022-07-06T03:34:14;6.80;;;2.73;;
9524;SDS011;15940;48.734;9.112;2022-07-06T03:36:41;7.20;;;3.00;;
9524;SDS011;15940;48.734;9.112;2022-07-06T03:39:09;5.53;;;2.40;;
9524;SDS011;15940;48.734;9.112;2022-07-06T03:41:36;3.90;;;2.40;;
9524;SDS011;15940;48.734;9.112;2022-07-06T03:44:03;4.17;;;2.73;;
9524;SDS011;15940;48.734;9.112;2022-07-06T03:46:30;2.70;;;2.50;;
9524;SDS011;15940;48.734;9.112;2022-07-06T03:48:57;4.10;;;2.60;;
9524;SDS011;15940;48.734;9.112;2022-07-06T03:51:24;3.07;;;2.50;;
9524;SDS011;15940;48.734;9.112;2022-07-06T03:53:51;6.50;;;2.37;;
9524;SDS011;15940;48.734;9.112;2022-07-06T03:56:19;2.87;;;2.13;;
9524;SDS011;15940;48.734;9.112;2022-07-06T03:58:55;4.13;;;2.30;;
9524;SDS011;15940;48.734;9.112;2022-07-06T04:01:23;3.57;;;2.30;;
9524;SDS011;15940;48.734;9.112;2022-07-06T04:03:51;2.60;;;2.40;;
9524;SDS011;15940;48.734;9.112;2022-07-06T04:06:17;7.47;;;2.87;;
9524;SDS011;15940;48.734;9.112;2022-07-06T04:08:44;4.73;;;2.77;;
9524;SDS011;15940;48.734;9.112;2022-07-06T04:11:12;4.07;;;2.73;;
9524;SDS011;15940;48.734;9.112;2022-07-06T04:13:40;7.87;;;2.60;;
9524;SDS011;15940;48.734;9.112;2022-07-06T04:16:07;3.30;;;2.63;;
9524;SDS011;15940;48.734;9.112;2022-07-06T04:18:34;5.17;;;3.03;;
9524;SDS011;15940;48.734;9.112;2022-07-06T04:21:01;3.00;;;2.80;;
9524;SDS011;15940;48.734;9.112;2022-07-06T04:23:28;3.13;;;2.83;;
9524;SDS011;15940;48.734;9.112;2022-07-06T04:25:55;3.77;;;2.67;;
9524;SDS011;15940;48.734;9.112;2022-07-06T04:28:23;3.20;;;2.80;;
9524;SDS011;15940;48.734;9.112;2022-07-06T04:30:51;4.30;;;2.90;;
9524;SDS011;15940;48.734;9.112;2022-07-06T04:33:18;3.30;;;3.00;;
9524;SDS011;15940;48.734;9.112;2022-07-06T04:35:45;5.27;;;3.10;;
9524;SDS011;15940;48.734;9.112;2022-07-06T04:38:12;3.50;;;2.87;;
9524;SDS011;15940;48.734;9.112;2022-07-06T04:40:39;4.27;;;3.10;;
9524;SDS011;15940;48.734;9.112;2022-07-06T04:43:06;7.47;;;3.33;;
9524;SDS011;15940;48.734;9.112;2022-07-06T04:45:33;4.20;;;2.50;;
9524;SDS011;15940;48.734;9.112;2022-07-06T04:48:01;4.83;;;2.87;;
9524;SDS011;15940;48.734;9.112;2022-07-06T04:50:29;4.73;;;3.07;;
9524;SDS011;15940;48.734;9.112;2022-07-06T04:52:57;3.73;;;3.00;;
9524;SDS011;15940;48.734;9.112;2022-07-06T04:55:24;3.33;;;3.03;;
9524;SDS011;15940;48.734;9.112;2022-07-06T04:57:51;5.40;;;3.50;;
9524;SDS011;15940;48.734;9.112;2022-07-06T05:00:18;5.07;;;3.33;;
9524;SDS011;15940;48.734;9.112;2022-07-06T05:02:45;7.00;;;3.33;;
9524;SDS011;15940;48.734;9.112;2022-07-06T05:05:13;6.97;;;3.80;;
9524;SDS011;15940;48.734;9.112;2022-07-06T05:07:40;4.83;;;3.77;;
9524;SDS011;15940;48.734;9.112;2022-07-06T05:10:08;3.57;;;3.27;;
9524;SDS011;15940;48.734;9.112;2022-07-06T05:12:36;4.73;;;3.23;;
9524;SDS011;15940;48.734;9.112;2022-07-06T05:15:04;3.90;;;3.60;;
9524;SDS011;15940;48.734;9.112;2022-07-06T05:17:32;4.43;;;4.03;;
9524;SDS011;15940;48.734;9.112;2022-07-06T05:19:59;3.70;;;3.20;;
9524;SDS011;15940;48.734;9.112;2022-07-06T05:22:27;4.00;;;3.20;;
9524;SDS011;15940;48.734;9.112;2022-07-06T05:24:54;6.17;;;3.27;;
9524;SDS011;15940;48.734;9.112;2022-07-06T05:27:21;5.00;;;3.47;;
9524;SDS011;15940;48.734;9.112;2022-07-06T05:29:49;7.27;;;3.70;;
9524;SDS011;15940;48.734;9.112;2022-07-06T05:32:16;4.23;;;3.43;;
9524;SDS011;15940;48.734;9.112;2022-07-06T05:34:43;8.67;;;3.93;;
9524;SDS011;15940;48.734;9.112;2022-07-06T05:37:09;3.87;;;3.43;;
9524;SDS011;15940;48.734;9.112;2022-07-06T05:39:38;6.30;;;3.93;;
9524;SDS011;15940;48.734;9.112;2022-07-06T05:42:08;3.97;;;3.40;;
9524;SDS011;15940;48.734;9.112;2022-07-06T05:44:35;5.87;;;3.53;;
9524;SDS011;15940;48.734;9.112;2022-07-06T05:47:02;6.07;;;3.43;;
9524;SDS011;15940;48.734;9.112;2022-07-06T05:49:47;5.87;;;3.07;;
9524;SDS011;15940;48.734;9.112;2022-07-06T05:52:32;4.73;;;3.00;;
9524;SDS011;15940;48.734;9.112;2022-07-06T05:55:00;3.30;;;2.93;;
9524;SDS011;15940;48.734;9.112;2022-07-06T05:57:27;3.80;;;3.10;;
9524;SDS011;15940;48.734;9.112;2022-07-06T05:59:54;7.37;;;3.00;;
9524;SDS011;15940;48.734;9.112;2022-07-06T06:02:21;4.67;;;3.20;;
9524;SDS011;15940;48.734;9.112;2022-07-06T06:04:48;6.03;;;3.10;;
9524;SDS011;15940;48.734;9.112;2022-07-06T06:07:15;2.80;;;2.60;;
9524;SDS011;15940;48.734;9.112;2022-07-06T06:09:41;4.40;;;2.63;;
9524;SDS011;15940;48.734;9.112;2022-07-06T06:12:11;4.13;;;2.60;;
9524;SDS011;15940;48.734;9.112;2022-07-06T06:14:38;6.73;;;3.00;;
9524;SDS011;15940;48.734;9.112;2022-07-06T06:17:04;6.47;;;2.70;;
9524;SDS011;15940;48.734;9.112;2022-07-06T06:19:34;4.33;;;2.60;;
9524;SDS011;15940;48.734;9.112;2022-07-06T06:22:01;3.67;;;2.70;;
9524;SDS011;15940;48.734;9.112;2022-07-06T06:24:29;4.67;;;2.90;;
9524;SDS011;15940;48.734;9.112;2022-07-06T06:26:56;3.63;;;2.70;;
9524;SDS011;15940;48.734;9.112;2022-07-06T06:29:25;4.57;;;2.90;;
9524;SDS011;15940;48.734;9.112;2022-07-06T06:31:52;3.63;;;2.90;;
9524;SDS011;15940;48.734;9.112;2022-07-06T06:34:19;4.17;;;2.43;;
9524;SDS011;15940;48.734;9.112;2022-07-06T06:36:46;4.53;;;2.90;;
9524;SDS011;15940;48.734;9.112;2022-07-06T06:39:13;5.70;;;2.70;;
9524;SDS011;15940;48.734;9.112;2022-07-06T06:41:40;4.70;;;2.60;;
9524;SDS011;15940;48.734;9.112;2022-07-06T06:44:07;4.10;;;2.50;;
9524;SDS011;15940;48.734;9.112;2022-07-06T06:46:35;5.80;;;2.60;;
9524;SDS011;15940;48.734;9.112;2022-07-06T06:49:03;3.23;;;2.57;;
9524;SDS011;15940;48.734;9.112;2022-07-06T06:51:30;3.93;;;2.70;;
9524;SDS011;15940;48.734;9.112;2022-07-06T06:53:57;2.67;;;2.30;;
9524;SDS011;15940;48.734;9.112;2022-07-06T06:56:24;3.63;;;2.60;;
9524;SDS011;15940;48.734;9.112;2022-07-06T06:58:51;3.53;;;2.20;;
9524;SDS011;15940;48.734;9.112;2022-07-06T07:01:18;3.03;;;2.40;;
9524;SDS011;15940;48.734;9.112;2022-07-06T07:03:46;2.53;;;2.10;;
9524;SDS011;15940;48.734;9.112;2022-07-06T07:06:14;3.53;;;2.13;;
9524;SDS011;15940;48.734;9.112;2022-07-06T07:08:40;8.23;;;2.67;;
9524;SDS011;15940;48.734;9.112;2022-07-06T07:11:08;4.33;;;2.00;;
9524;SDS011;15940;48.734;9.112;2022-07-06T07:13:35;3.70;;;2.30;;
9524;SDS011;15940;48.734;9.112;2022-07-06T07:16:02;2.70;;;2.43;;
9524;SDS011;15940;48.734;9.112;2022-07-06T07:18:29;2.10;;;1.90;;
9524;SDS011;15940;48.734;9.112;2022-07-06T07:20:58;2.90;;;2.07;;
9524;SDS011;15940;48.734;9.112;2022-07-06T07:23:24;5.47;;;1.90;;
9524;SDS011;15940;48.734;9.112;2022-07-06T07:25:52;5.03;;;2.30;;
9524;SDS011;15940;48.734;9.112;2022-07-06T07:28:19;3.27;;;2.43;;
9524;SDS011;15940;48.734;9.112;2022-07-06T07:30:46;2.47;;;2.20;;
9524;SDS011;15940;48.734;9.112;2022-07-06T07:33:13;7.13;;;2.30;;
9524;SDS011;15940;48.734;9.112;2022-07-06T07:35:40;3.23;;;2.10;;
9524;SDS011;15940;48.734;9.112;2022-07-06T07:38:08;2.27;;;2.00;;
9524;SDS011;15940;48.734;9.112;2022-07-06T07:40:35;2.17;;;2.07;;
9524;SDS011;15940;48.734;9.112;2022-07-06T07:43:02;2.23;;;2.03;;
9524;SDS011;15940;48.734;9.112;2022-07-06T07:45:29;2.63;;;2.20;;
9524;SDS011;15940;48.734;9.112;2022-07-06T07:47:57;3.00;;;2.20;;
9524;SDS011;15940;48.734;9.112;2022-07-06T07:50:24;3.20;;;1.80;;
9524;SDS011;15940;48.734;9.112;2022-07-06T07:52:51;2.37;;;1.90;;
9524;SDS011;15940;48.734;9.112;2022-07-06T07:55:20;4.87;;;1.80;;
9524;SDS011;15940;48.734;9.112;2022-07-06T07:57:46;2.60;;;2.27;;
9524;SDS011;15940;48.734;9.112;2022-07-06T08:00:14;2.07;;;1.83;;
9524;SDS011;15940;48.734;9.112;2022-07-06T08:02:41;3.40;;;2.00;;
9524;SDS011;15940;48.734;9.112;2022-07-06T08:05:08;4.03;;;2.17;;
9524;SDS011;15940;48.734;9.112;2022-07-06T08:07:38;2.63;;;2.10;;
9524;SDS011;15940;48.734;9.112;2022-07-06T08:10:05;6.90;;;2.30;;
9524;SDS011;15940;48.734;9.112;2022-07-06T08:12:34;7.17;;;2.33;;
9524;SDS011;15940;48.734;9.112;2022-07-06T08:15:01;2.50;;;2.30;;
9524;SDS011;15940;48.734;9.112;2022-07-06T08:17:29;3.37;;;2.20;;
9524;SDS011;15940;48.734;9.112;2022-07-06T08:19:56;2.70;;;1.90;;
9524;SDS011;15940;48.734;9.112;2022-07-06T08:22:23;2.07;;;1.87;;
9524;SDS011;15940;48.734;9.112;2022-07-06T08:24:50;3.33;;;2.10;;
9524;SDS011;15940;48.734;9.112;2022-07-06T08:27:17;2.60;;;2.20;;
9524;SDS011;15940;48.734;9.112;2022-07-06T08:29:45;2.27;;;1.90;;
9524;SDS011;15940;48.734;9.112;2022-07-06T08:32:12;2.33;;;2.07;;
9524;SDS011;15940;48.734;9.112;2022-07-06T08:34:39;2.57;;;2.10;;
9524;SDS011;15940;48.734;9.112;2022-07-06T08:37:08;3.23;;;1.93;;
9524;SDS011;15940;48.734;9.112;2022-07-06T08:39:35;6.83;;;2.70;;
9524;SDS011;15940;48.734;9.112;2022-07-06T08:42:02;5.10;;;2.50;;
9524;SDS011;15940;48.734;9.112;2022-07-06T08:44:30;2.30;;;2.00;;
9524;SDS011;15940;48.734;9.112;2022-07-06T08:46:58;3.43;;;2.30;;
9524;SDS011;15940;48.734;9.112;2022-07-06T08:49:31;2.33;;;2.00;;
9524;SDS011;15940;48.734;9.112;2022-07-06T08:52:01;4.97;;;2.00;;
9524;SDS011;15940;48.734;9.112;2022-07-06T08:54:30;2.47;;;2.20;;
9524;SDS011;15940;48.734;9.112;2022-07-06T08:56:57;2.87;;;2.50;;
9524;SDS011;15940;48.734;9.112;2022-07-06T08:59:25;2.63;;;1.93;;
9524;SDS011;15940;48.734;9.112;2022-07-06T09:01:52;6.63;;;2.40;;
9524;SDS011;15940;48.734;9.112;2022-07-06T09:04:21;3.17;;;1.93;;
9524;SDS011;15940;48.734;9.112;2022-07-06T09:06:49;3.23;;;2.30;;
9524;SDS011;15940;48.734;9.112;2022-07-06T09:09:18;2.50;;;2.30;;
9524;SDS011;15940;48.734;9.112;2022-07-06T09:11:47;5.33;;;2.40;;
9524;SDS011;15940;48.734;9.112;2022-07-06T09:14:15;3.47;;;2.37;;
9524;SDS011;15940;48.734;9.112;2022-07-06T09:16:43;5.43;;;2.30;;
9524;SDS011;15940;48.734;9.112;2022-07-06T09:19:12;4.20;;;2.40;;
9524;SDS011;15940;48.734;9.112;2022-07-06T09:21:41;2.77;;;2.43;;
9524;SDS011;15940;48.734;9.112;2022-07-06T09:24:11;3.33;;;2.67;;
9524;SDS011;15940;48.734;9.112;2022-07-06T09:26:39;3.63;;;2.07;;
9524;SDS011;15940;48.734;9.112;2022-07-06T09:29:07;5.43;;;2.10;;
9524;SDS011;15940;48.734;9.112;2022-07-06T09:31:34;2.30;;;2.10;;
9524;SDS011;15940;48.734;9.112;2022-07-06T09:34:02;3.23;;;1.80;;
9524;SDS011;15940;48.734;9.112;2022-07-06T09:36:38;2.90;;;2.13;;
9524;SDS011;15940;48.734;9.112;2022-07-06T09:39:19;3.30;;;2.40;;
9524;SDS011;15940;48.734;9.112;2022-07-06T09:41:49;5.27;;;2.47;;
9524;SDS011;15940;48.734;9.112;2022-07-06T09:44:22;4.87;;;2.67;;
9524;SDS011;15940;48.734;9.112;2022-07-06T09:46:51;5.37;;;2.80;;
9524;SDS011;15940;48.734;9.112;2022-07-06T09:49:19;5.80;;;2.37;;
9524;SDS011;15940;48.734;9.112;2022-07-06T09:51:49;4.47;;;2.20;;
9524;SDS011;15940;48.734;9.112;2022-07-06T09:54:18;4.50;;;2.70;;
9524;SDS011;15940;48.734;9.112;2022-07-06T09:56:46;3.53;;;2.20;;
9524;SDS011;15940;48.734;9.112;2022-07-06T09:59:17;5.43;;;2.27;;
9524;SDS011;15940;48.734;9.112;2022-07-06T10:01:46;2.87;;;2.23;;
9524;SDS011;15940;48.734;9.112;2022-07-06T10:04:16;6.50;;;2.53;;
9524;SDS011;15940;48.734;9.112;2022-07-06T10:06:45;2.60;;;2.30;;
9524;SDS011;15940;48.734;9.112;2022-07-06T10:09:14;6.87;;;2.43;;
9524;SDS011;15940;48.734;9.112;2022-07-06T10:11:42;8.67;;;2.30;;
9524;SDS011;15940;48.734;9.112;2022-07-06T10:14:15;5.87;;;2.40;;
9524;SDS011;15940;48.734;9.112;2022-07-06T10:16:46;6.40;;;2.47;;
9524;SDS011;15940;48.734;9.112;2022-07-06T10:19:13;7.53;;;2.30;;
9524;SDS011;15940;48.734;9.112;2022-07-06T10:21:43;2.53;;;1.87;;
9524;SDS011;15940;48.734;9.112;2022-07-06T10:24:11;6.67;;;2.53;;
9524;SDS011;15940;48.734;9.112;2022-07-06T10:26:40;2.33;;;2.10;;
9524;SDS011;15940;48.734;9.112;2022-07-06T10:29:08;4.17;;;2.57;;
9524;SDS011;15940;48.734;9.112;2022-07-06T10:31:36;3.17;;;2.50;;
9524;SDS011;15940;48.734;9.112;2022-07-06T10:34:08;4.23;;;2.47;;
9524;SDS011;15940;48.734;9.112;2022-07-06T10:36:38;3.93;;;2.40;;
9524;SDS011;15940;48.734;9.112;2022-07-06T10:39:06;7.63;;;2.60;;
9524;SDS011;15940;48.734;9.112;2022-07-06T10:41:52;7.37;;;2.50;;
9524;SDS011;15940;48.734;9.112;2022-07-06T10:44:20;3.10;;;2.50;;
9524;SDS011;15940;48.734;9.112;2022-07-06T10:46:49;6.03;;;2.60;;
9524;SDS011;15940;48.734;9.112;2022-07-06T10:49:18;4.17;;;2.37;;
9524;SDS011;15940;48.734;9.112;2022-07-06T10:51:46;5.37;;;2.60;;
9524;SDS011;15940;48.734;9.112;2022-07-06T10:54:14;7.43;;;2.13;;
9524;SDS011;15940;48.734;9.112;2022-07-06T10:56:43;4.27;;;2.50;;
9524;SDS011;15940;48.734;9.112;2022-07-06T10:59:13;7.80;;;3.10;;
9524;SDS011;15940;48.734;9.112;2022-07-06T11:02:10;3.07;;;2.47;;
9524;SDS011;15940;48.734;9.112;2022-07-06T11:04:39;6.47;;;2.47;;
9524;SDS011;15940;48.734;9.112;2022-07-06T11:07:08;3.53;;;2.47;;
9524;SDS011;15940;48.734;9.112;2022-07-06T11:09:36;2.83;;;2.60;;
9524;SDS011;15940;48.734;9.112;2022-07-06T11:12:14;5.90;;;3.20;;
9524;SDS011;15940;48.734;9.112;2022-07-06T11:14:44;5.07;;;2.90;;
9524;SDS011;15940;48.734;9.112;2022-07-06T11:17:14;6.77;;;2.80;;
9524;SDS011;15940;48.734;9.112;2022-07-06T11:19:50;3.57;;;2.40;;
9524;SDS011;15940;48.734;9.112;2022-07-06T11:22:22;4.83;;;2.53;;
9524;SDS011;15940;48.734;9.112;2022-07-06T11:24:50;3.47;;;2.50;;
9524;SDS011;15940;48.734;9.112;2022-07-06T11:27:17;5.37;;;3.03;;
9524;SDS011;15940;48.734;9.112;2022-07-06T11:29:46;5.30;;;2.53;;
9524;SDS011;15940;48.734;9.112;2022-07-06T11:32:13;5.07;;;2.80;;
9524;SDS011;15940;48.734;9.112;2022-07-06T11:34:40;6.13;;;2.80;;
9524;SDS011;15940;48.734;9.112;2022-07-06T11:37:10;6.60;;;3.17;;
9524;SDS011;15940;48.734;9.112;2022-07-06T11:39:39;5.03;;;3.00;;
9524;SDS011;15940;48.734;9.112;2022-07-06T11:42:08;4.47;;;2.50;;
9524;SDS011;15940;48.734;9.112;2022-07-06T11:44:36;6.03;;;2.77;;
9524;SDS011;15940;48.734;9.112;2022-07-06T11:47:06;3.57;;;2.80;;
9524;SDS011;15940;48.734;9.112;2022-07-06T11:49:35;6.63;;;3.00;;
9524;SDS011;15940;48.734;9.112;2022-07-06T11:52:05;5.23;;;2.30;;
9524;SDS011;15940;48.734;9.112;2022-07-06T11:54:34;5.27;;;3.07;;
9524;SDS011;15940;48.734;9.112;2022-07-06T11:57:01;5.03;;;2.90;;
9524;SDS011;15940;48.734;9.112;2022-07-06T11:59:30;5.77;;;3.03;;
9524;SDS011;15940;48.734;9.112;2022-07-06T12:02:00;6.13;;;3.07;;
9524;SDS011;15940;48.734;9.112;2022-07-06T12:04:31;6.80;;;2.90;;
9524;SDS011;15940;48.734;9.112;2022-07-06T12:06:59;7.17;;;2.80;;
9524;SDS011;15940;48.734;9.112;2022-07-06T12:09:29;4.63;;;2.53;;
9524;SDS011;15940;48.734;9.112;2022-07-06T12:11:57;3.40;;;2.80;;
9524;SDS011;15940;48.734;9.112;2022-07-06T12:14:27;4.63;;;2.93;;
9524;SDS011;15940;48.734;9.112;2022-07-06T12:16:55;5.07;;;2.90;;
9524;SDS011;15940;48.734;9.112;2022-07-06T12:19:22;4.33;;;2.73;;
9524;SDS011;15940;48.734;9.112;2022-07-06T12:21:51;3.90;;;2.90;;
9524;SDS011;15940;48.734;9.112;2022-07-06T12:24:18;3.33;;;2.87;;
9524;SDS011;15940;48.734;9.112;2022-07-06T12:26:47;5.47;;;3.20;;
9524;SDS011;15940;48.734;9.112;2022-07-06T12:29:16;7.33;;;3.43;;
9524;SDS011;15940;48.734;9.112;2022-07-06T12:31:43;4.63;;;2.90;;
9524;SDS011;15940;48.734;9.112;2022-07-06T12:34:17;4.57;;;3.00;;
9524;SDS011;15940;48.734;9.112;2022-07-06T12:36:46;4.23;;;3.00;;
9524;SDS011;15940;48.734;9.112;2022-07-06T12:39:16;10.10;;;3.27;;
9524;SDS011;15940;48.734;9.112;2022-07-06T12:41:45;6.70;;;2.83;;
9524;SDS011;15940;48.734;9.112;2022-07-06T12:44:16;6.90;;;3.00;;
9524;SDS011;15940;48.734;9.112;2022-07-06T12:46:45;7.80;;;2.77;;
9524;SDS011;15940;48.734;9.112;2022-07-06T12:49:14;6.00;;;3.03;;
9524;SDS011;15940;48.734;9.112;2022-07-06T12:51:49;8.23;;;3.37;;
9524;SDS011;15940;48.734;9.112;2022-07-06T12:54:22;5.43;;;2.97;;
9524;SDS011;15940;48.734;9.112;2022-07-06T12:57:02;9.73;;;3.13;;
9524;SDS011;15940;48.734;9.112;2022-07-06T12:59:38;9.87;;;2.83;;
9524;SDS011;15940;48.734;9.112;2022-07-06T13:02:08;10.50;;;3.47;;
9524;SDS011;15940;48.734;9.112;2022-07-06T13:04:42;4.07;;;2.20;;
9524;SDS011;15940;48.734;9.112;2022-07-06T13:07:17;3.00;;;2.67;;
9524;SDS011;15940;48.734;9.112;2022-07-06T13:09:46;4.50;;;2.10;;
9524;SDS011;15940;48.734;9.112;2022-07-06T13:12:13;8.13;;;3.40;;
9524;SDS011;15940;48.734;9.112;2022-07-06T13:14:40;4.43;;;2.20;;
9524;SDS011;15940;48.734;9.112;2022-07-06T13:17:07;8.70;;;2.40;;
9524;SDS011;15940;48.734;9.112;2022-07-06T13:19:34;4.93;;;2.40;;
9524;SDS011;15940;48.734;9.112;2022-07-06T13:22:01;6.67;;;2.30;;
9524;SDS011;15940;48.734;9.112;2022-07-06T13:24:29;3.50;;;2.00;;
9524;SDS011;15940;48.734;9.112;2022-07-06T13:26:57;4.93;;;2.20;;
9524;SDS011;15940;48.734;9.112;2022-07-06T13:29:24;4.37;;;2.63;;
9524;SDS011;15940;48.734;9.112;2022-07-06T13:31:51;6.07;;;2.40;;
9524;SDS011;15940;48.734;9.112;2022-07-06T13:34:18;3.07;;;2.20;;
9524;SDS011;15940;48.734;9.112;2022-07-06T13:36:45;5.47;;;2.30;;
9524;SDS011;15940;48.734;9.112;2022-07-06T13:39:12;8.60;;;2.53;;
9524;SDS011;15940;48.734;9.112;2022-07-06T13:41:39;2.63;;;1.93;;
9524;SDS011;15940;48.734;9.112;2022-07-06T13:44:08;4.40;;;2.00;;
9524;SDS011;15940;48.734;9.112;2022-07-06T13:46:37;6.77;;;2.37;;
9524;SDS011;15940;48.734;9.112;2022-07-06T13:49:05;4.00;;;1.90;;
9524;SDS011;15940;48.734;9.112;2022-07-06T13:51:32;9.00;;;2.53;;
9524;SDS011;15940;48.734;9.112;2022-07-06T13:53:59;3.13;;;2.07;;
9524;SDS011;15940;48.734;9.112;2022-07-06T13:56:26;2.20;;;2.00;;
9524;SDS011;15940;48.734;9.112;2022-07-06T13:58:54;3.33;;;2.00;;
9524;SDS011;15940;48.734;9.112;2022-07-06T14:01:23;4.13;;;2.00;;
9524;SDS011;15940;48.734;9.112;2022-07-06T14:03:50;2.73;;;2.00;;
9524;SDS011;15940;48.734;9.112;2022-07-06T14:06:18;4.13;;;2.10;;
9524;SDS011;15940;48.734;9.112;2022-07-06T14:08:45;4.77;;;2.10;;
9524;SDS011;15940;48.734;9.112;2022-07-06T14:11:13;4.77;;;2.20;;
9524;SDS011;15940;48.734;9.112;2022-07-06T14:13:40;3.13;;;2.33;;
9524;SDS011;15940;48.734;9.112;2022-07-06T14:16:08;1.93;;;1.80;;
9524;SDS011;15940;48.734;9.112;2022-07-06T14:18:37;3.10;;;2.20;;
9524;SDS011;15940;48.734;9.112;2022-07-06T14:21:04;4.27;;;1.90;;
9524;SDS011;15940;48.734;9.112;2022-07-06T14:23:31;7.80;;;1.90;;
9524;SDS011;15940;48.734;9.112;2022-07-06T14:25:58;7.00;;;1.90;;
9524;SDS011;15940;48.734;9.112;2022-07-06T14:28:25;5.20;;;2.40;;
9524;SDS011;15940;48.734;9.112;2022-07-06T14:30:52;3.77;;;1.97;;
9524;SDS011;15940;48.734;9.112;2022-07-06T14:33:19;3.37;;;2.00;;
9524;SDS011;15940;48.734;9.112;2022-07-06T14:35:48;3.07;;;2.30;;
9524;SDS011;15940;48.734;9.112;2022-07-06T14:38:17;2.80;;;2.00;;
9524;SDS011;15940;48.734;9.112;2022-07-06T14:40:45;4.37;;;1.80;;
9524;SDS011;15940;48.734;9.112;2022-07-06T14:43:14;2.10;;;1.90;;
9524;SDS011;15940;48.734;9.112;2022-07-06T14:45:42;4.27;;;1.87;;
9524;SDS011;15940;48.734;9.112;2022-07-06T14:48:10;1.63;;;1.53;;
9524;SDS011;15940;48.734;9.112;2022-07-06T14:50:37;3.43;;;1.97;;
9524;SDS011;15940;48.734;9.112;2022-07-06T14:53:05;1.73;;;1.63;;
9524;SDS011;15940;48.734;9.112;2022-07-06T14:55:32;4.20;;;1.80;;
9524;SDS011;15940;48.734;9.112;2022-07-06T14:57:59;2.60;;;1.77;;
9524;SDS011;15940;48.734;9.112;2022-07-06T15:00:26;3.63;;;1.77;;
9524;SDS011;15940;48.734;9.112;2022-07-06T15:02:54;1.67;;;1.57;;
9524;SDS011;15940;48.734;9.112;2022-07-06T15:05:21;3.77;;;2.33;;